Thunder radar more information blitzortung!


avis per Pluja more information rain snow radar


Visita la nostra xarxa de llocs de meteo:

Template documentation
and downloads

And another site



Rain From: 18-10-2018 10:00 Until: 16:59 warning for: Rain Level: Yellow info button

Nearby METAR Reports

   
LEBL - Barcelona Airpor, Spain
Distancia fins a l'estacio: SSE 30 km
Actualitzacio: 18-10-2018 13:30
pluja, Parcialment ennuvolat  
pluja, Parcialment ennuvolat  
   Vent: NE 20.4 km/h
Vent: NE 20.4 km/h
Temperatura: 19°C
Punt de rosada: 17°C
Humitat: 88%
Barometre: 1011 hPa
Nuvols: Mostly Cloudy
Visibilitat: 9 km
Cloud details: Nuvols dispersos 2000 ft,
Parcialment tapat 4000 ft,
Parcialment ennuvolat 5500 ft
LEBL 181130Z 04011KT 9000 -RA FEW020TCU SCT040 BKN055 19/17 Q1011 TEMPO 4000 SHRA
LELL - Sabadell, Spain
Distancia fins a l'estacio: WNW 14 km
Actualitzacio: 18-10-2018 13:30
pluja, Parcialment ennuvolat  
pluja, Parcialment ennuvolat  
   Vent: ENE 9.3 km/h
Vent: ENE 9.3 km/h
Temperatura: 19°C
Punt de rosada: 17°C
Humitat: 88%
Barometre: 1012 hPa
Nuvols: Mostly Cloudy
Visibilitat: More than 10 km
Cloud details: Parcialment tapat 3000 ft,
Parcialment ennuvolat 5500 ft
LELL 181130Z 06005KT 010V110 9999 -RA SCT030TCU BKN055 19/17 Q1012
LEGE - Girona/Costa Bra, Spain
Distancia fins a l'estacio: NE 65 km
Actualitzacio: 18-10-2018 13:30
pluja, Parcialment ennuvolat  
pluja, Parcialment ennuvolat  
   Vent: NE 16.7 km/h
Vent: NE 16.7 km/h
Temperatura: 17°C
Punt de rosada: 17°C
Humitat: 100%
Barometre: 1013 hPa
Nuvols: Mostly Cloudy
Visibilitat: 8 km
Cloud details: Parcialment ennuvolat 800 ft
LEGE 181130Z 04009KT 8000 -RA BKN008 17/17 Q1013
LERS - Reus (civ/Mil), Spain
Distancia fins a l'estacio: WSW 96 km
Actualitzacio: 18-10-2018 13:50
Pluges, Pluja, Clar  
Pluges, Pluja, Clar  
   Vent: ENE 29.6 km/h
Vent: ENE 29.6 km/h
Temperatura: 20°C
Punt de rosada: 16°C
Humitat: 78%
Barometre: 1011 hPa
Nuvols: Overcast
Visibilitat: 2 km
Cloud details: Nuvols dispersos 2500 ft,
Parcialment ennuvolat 3500 ft,
Clar 5000 ft
LERS 181150Z 06016KT 2000 SHRA FEW025TCU BKN035 OVC050 20/16 Q1011
LESU - Pirineus/La Seu, Spain
Distancia fins a l'estacio: NW 121 km
Actualitzacio: 18-10-2018 13:30
pluja, Parcialment ennuvolat  
pluja, Parcialment ennuvolat  
   Vent: SW 7.4 km/h
Vent: SW 7.4 km/h
Temperatura: 13°C
Punt de rosada: 12°C
Humitat: 94%
Barometre: 1015 hPa
Nuvols: Mostly Cloudy
Visibilitat: More than 10 km
Cloud details: Nuvols dispersos 3000 ft,
Parcialment tapat 7000 ft,
Parcialment ennuvolat 8000 ft
LESU 181130Z 22004KT 9999 -RA FEW030 SCT070 BKN080 13/12 Q1015
LEDA - Lleida/Alguaire, Spain
Distancia fins a l'estacio: WNW 146 km
Actualitzacio: 18-10-2018 08:00
NO actual
Clar  
Clar  
   Vent: calma
Vent: calma
Temperatura: 13°C
Punt de rosada: 13°C
Humitat: 100%
Barometre: 1012 hPa
Nuvols: Clear
Visibilitat: 8 km
Cloud details: Clar ft
LEDA 180600Z AUTO 00000KT 8000 NCD 13/13 Q1012
LFMP - Perpignan/Rivesa, France
Distancia fins a l'estacio: NNE 150 km
Actualitzacio: 18-10-2018 13:30
Clar  
Clar  
   Vent: varia 5.6 km/h
Vent: varia 5.6 km/h
Temperatura: 19°C
Punt de rosada: 16°C
Humitat: 83%
Barometre: 1014 hPa
Nuvols: Overcast
Visibilitat: More than 10 km
Cloud details: Parcialment ennuvolat 3100 ft,
Parcialment ennuvolat 3700 ft,
Clar 4300 ft
LFMP 181130Z AUTO VRB03KT 9999 BKN031 BKN037 OVC043 19/16 Q1014 NOSIG
LEPA - Palma De Mallorca, Spain
Distancia fins a l'estacio: S 216 km
Actualitzacio: 18-10-2018 13:30
Parcialment tapat  
Parcialment tapat  
   Vent: ENE 16.7 km/h
Vent: ENE 16.7 km/h
Temperatura: 22°C
Punt de rosada: 20°C
Humitat: 88%
Barometre: 1008 hPa
Nuvols: Partly Cloudy
Visibilitat: More than 10 km
Cloud details: Nuvols dispersos 1400 ft,
Parcialment tapat 6600 ft
LEPA 181130Z 07009KT 9999 FEW014 SCT066 22/20 Q1008 NOSIG
 

Guio original per  Saratoga-weather.org Adaptat per a la plantilla per  Weerstation Leuven

Trobareu la nostra informacio del temps tambe a:

Weather Underground

AWEKAS